sensor_id;sensor_type;location;lat;lon;timestamp;pressure;altitude;pressure_sealevel;temperature;humidity
11198;BME280;5655;48.744;9.162;2024-03-23T00:56:07;95435.09;;;13.15;nan
11198;BME280;5655;48.744;9.162;2024-03-23T00:58:33;95425.34;;;13.29;nan
11198;BME280;5655;48.744;9.162;2024-03-23T01:00:58;95418.34;;;13.35;nan
11198;BME280;5655;48.744;9.162;2024-03-23T01:03:23;95421.03;;;13.35;nan
11198;BME280;5655;48.744;9.162;2024-03-23T01:05:49;95425.09;;;13.46;nan
11198;BME280;5655;48.744;9.162;2024-03-23T01:08:14;95420.69;;;13.33;nan
11198;BME280;5655;48.744;9.162;2024-03-23T01:10:40;95430.47;;;13.46;nan
11198;BME280;5655;48.744;9.162;2024-03-23T01:13:05;95417.72;;;13.24;nan
11198;BME280;5655;48.744;9.162;2024-03-23T01:15:30;95416.03;;;13.37;nan
11198;BME280;5655;48.744;9.162;2024-03-23T01:17:56;95421.28;;;13.44;nan
11198;BME280;5655;48.744;9.162;2024-03-23T01:20:21;95407.59;;;13.35;nan
11198;BME280;5655;48.744;9.162;2024-03-23T01:22:46;95410.38;;;13.58;nan
11198;BME280;5655;48.744;9.162;2024-03-23T01:25:12;95400.88;;;13.50;nan
11198;BME280;5655;48.744;9.162;2024-03-23T01:27:37;95400.44;;;13.51;nan
11198;BME280;5655;48.744;9.162;2024-03-23T01:30:03;95394.41;;;13.44;nan
11198;BME280;5655;48.744;9.162;2024-03-23T01:32:28;95393.97;;;13.49;nan
11198;BME280;5655;48.744;9.162;2024-03-23T01:34:53;95391.34;;;13.42;nan
11198;BME280;5655;48.744;9.162;2024-03-23T01:37:18;95380.41;;;13.56;nan
11198;BME280;5655;48.744;9.162;2024-03-23T01:39:44;95386.94;;;13.58;nan
11198;BME280;5655;48.744;9.162;2024-03-23T01:42:09;95386.44;;;13.67;nan
11198;BME280;5655;48.744;9.162;2024-03-23T01:44:34;95377.47;;;13.74;nan
11198;BME280;5655;48.744;9.162;2024-03-23T01:47:00;95389.16;;;13.63;nan
11198;BME280;5655;48.744;9.162;2024-03-23T01:49:25;95366.38;;;13.72;nan
11198;BME280;5655;48.744;9.162;2024-03-23T01:51:51;95367.84;;;13.76;nan
11198;BME280;5655;48.744;9.162;2024-03-23T01:54:16;95362.69;;;13.62;nan
11198;BME280;5655;48.744;9.162;2024-03-23T01:56:42;95354.97;;;13.64;nan
11198;BME280;5655;48.744;9.162;2024-03-23T01:59:07;95359.34;;;13.54;nan
11198;BME280;5655;48.744;9.162;2024-03-23T02:01:35;95360.31;;;13.64;nan
11198;BME280;5655;48.744;9.162;2024-03-23T02:04:01;95343.69;;;13.73;nan
11198;BME280;5655;48.744;9.162;2024-03-23T02:06:27;95342.94;;;13.45;nan
11198;BME280;5655;48.744;9.162;2024-03-23T02:08:53;95340.78;;;13.33;nan
11198;BME280;5655;48.744;9.162;2024-03-23T02:11:19;95337.00;;;13.31;nan
11198;BME280;5655;48.744;9.162;2024-03-23T02:13:44;95333.88;;;13.36;nan
11198;BME280;5655;48.744;9.162;2024-03-23T02:16:09;95343.25;;;13.24;nan
11198;BME280;5655;48.744;9.162;2024-03-23T02:18:35;95332.66;;;13.40;nan
11198;BME280;5655;48.744;9.162;2024-03-23T02:21:00;95326.59;;;13.59;nan
11198;BME280;5655;48.744;9.162;2024-03-23T02:23:26;95318.59;;;13.56;nan
11198;BME280;5655;48.744;9.162;2024-03-23T02:25:51;95324.84;;;13.76;nan
11198;BME280;5655;48.744;9.162;2024-03-23T02:28:18;95324.41;;;13.51;nan
11198;BME280;5655;48.744;9.162;2024-03-23T02:30:44;95308.19;;;13.58;nan
11198;BME280;5655;48.744;9.162;2024-03-23T02:33:09;95312.88;;;13.54;nan
11198;BME280;5655;48.744;9.162;2024-03-23T02:35:35;95314.69;;;13.34;nan
11198;BME280;5655;48.744;9.162;2024-03-23T02:38:00;95313.47;;;13.65;nan
11198;BME280;5655;48.744;9.162;2024-03-23T02:40:26;95322.22;;;13.46;nan
11198;BME280;5655;48.744;9.162;2024-03-23T02:42:52;95314.59;;;13.41;nan
11198;BME280;5655;48.744;9.162;2024-03-23T02:45:17;95317.03;;;13.32;nan
11198;BME280;5655;48.744;9.162;2024-03-23T02:47:42;95310.63;;;13.49;nan
11198;BME280;5655;48.744;9.162;2024-03-23T02:50:08;95312.69;;;13.38;nan
11198;BME280;5655;48.744;9.162;2024-03-23T02:52:34;95306.09;;;13.46;nan
11198;BME280;5655;48.744;9.162;2024-03-23T02:55:00;95299.03;;;13.29;nan
11198;BME280;5655;48.744;9.162;2024-03-23T02:57:27;95300.97;;;13.25;nan
11198;BME280;5655;48.744;9.162;2024-03-23T02:59:52;95290.25;;;13.25;nan
11198;BME280;5655;48.744;9.162;2024-03-23T03:02:17;95293.88;;;13.38;nan
11198;BME280;5655;48.744;9.162;2024-03-23T03:04:43;95283.97;;;13.35;nan
11198;BME280;5655;48.744;9.162;2024-03-23T03:07:08;95288.63;;;13.31;nan
11198;BME280;5655;48.744;9.162;2024-03-23T03:09:33;95285.69;;;13.22;nan
11198;BME280;5655;48.744;9.162;2024-03-23T03:12:01;95281.03;;;13.26;nan
11198;BME280;5655;48.744;9.162;2024-03-23T03:14:26;95290.34;;;13.17;nan
11198;BME280;5655;48.744;9.162;2024-03-23T03:16:52;95276.63;;;13.08;nan
11198;BME280;5655;48.744;9.162;2024-03-23T03:19:17;95287.16;;;13.26;nan
11198;BME280;5655;48.744;9.162;2024-03-23T03:21:43;95287.56;;;13.25;nan
11198;BME280;5655;48.744;9.162;2024-03-23T03:24:08;95276.53;;;13.19;nan
11198;BME280;5655;48.744;9.162;2024-03-23T03:26:34;95283.66;;;13.29;nan
11198;BME280;5655;48.744;9.162;2024-03-23T03:28:59;95277.28;;;13.20;nan
11198;BME280;5655;48.744;9.162;2024-03-23T03:31:24;95265.28;;;12.97;nan
11198;BME280;5655;48.744;9.162;2024-03-23T03:33:50;95258.22;;;13.10;nan
11198;BME280;5655;48.744;9.162;2024-03-23T03:36:18;95257.28;;;13.21;nan
11198;BME280;5655;48.744;9.162;2024-03-23T03:38:43;95265.00;;;13.18;nan
11198;BME280;5655;48.744;9.162;2024-03-23T03:41:08;95254.09;;;13.02;nan
11198;BME280;5655;48.744;9.162;2024-03-23T03:43:34;95258.44;;;12.93;nan
11198;BME280;5655;48.744;9.162;2024-03-23T03:46:00;95255.44;;;12.87;nan
11198;BME280;5655;48.744;9.162;2024-03-23T03:48:26;95244.84;;;12.73;nan
11198;BME280;5655;48.744;9.162;2024-03-23T03:50:52;95242.00;;;12.87;nan
11198;BME280;5655;48.744;9.162;2024-03-23T03:53:17;95241.94;;;12.64;nan
11198;BME280;5655;48.744;9.162;2024-03-23T03:55:42;95227.16;;;12.79;nan
11198;BME280;5655;48.744;9.162;2024-03-23T03:58:08;95224.19;;;12.70;nan
11198;BME280;5655;48.744;9.162;2024-03-23T04:00:33;95211.75;;;12.83;nan
11198;BME280;5655;48.744;9.162;2024-03-23T04:02:58;95205.06;;;12.68;nan
11198;BME280;5655;48.744;9.162;2024-03-23T04:05:24;95200.94;;;12.60;nan
11198;BME280;5655;48.744;9.162;2024-03-23T04:07:49;95196.59;;;12.69;nan
11198;BME280;5655;48.744;9.162;2024-03-23T04:10:15;95202.81;;;12.63;nan
11198;BME280;5655;48.744;9.162;2024-03-23T04:12:44;95186.78;;;12.59;nan
11198;BME280;5655;48.744;9.162;2024-03-23T04:15:09;95172.94;;;12.61;nan
11198;BME280;5655;48.744;9.162;2024-03-23T04:17:35;95159.78;;;12.70;nan
11198;BME280;5655;48.744;9.162;2024-03-23T04:20:01;95155.06;;;12.51;nan
11198;BME280;5655;48.744;9.162;2024-03-23T04:22:27;95156.28;;;12.43;nan
11198;BME280;5655;48.744;9.162;2024-03-23T04:24:54;95157.81;;;12.44;nan
11198;BME280;5655;48.744;9.162;2024-03-23T04:27:19;95157.13;;;12.40;nan
11198;BME280;5655;48.744;9.162;2024-03-23T04:29:51;95162.13;;;12.64;nan
11198;BME280;5655;48.744;9.162;2024-03-23T04:32:17;95165.16;;;12.40;nan
11198;BME280;5655;48.744;9.162;2024-03-23T04:34:43;95176.06;;;12.56;nan
11198;BME280;5655;48.744;9.162;2024-03-23T04:37:09;95167.66;;;12.54;nan
11198;BME280;5655;48.744;9.162;2024-03-23T04:39:36;95168.38;;;12.58;nan
11198;BME280;5655;48.744;9.162;2024-03-23T04:42:01;95206.56;;;12.39;nan
11198;BME280;5655;48.744;9.162;2024-03-23T04:44:27;95194.69;;;12.40;nan
11198;BME280;5655;48.744;9.162;2024-03-23T04:46:53;95183.78;;;12.54;nan
11198;BME280;5655;48.744;9.162;2024-03-23T04:49:18;95193.56;;;12.67;nan
11198;BME280;5655;48.744;9.162;2024-03-23T04:51:44;95199.66;;;12.71;nan
11198;BME280;5655;48.744;9.162;2024-03-23T04:54:12;95214.81;;;12.85;nan
11198;BME280;5655;48.744;9.162;2024-03-23T04:56:37;95219.19;;;12.72;nan
11198;BME280;5655;48.744;9.162;2024-03-23T04:59:02;95226.81;;;12.47;nan
11198;BME280;5655;48.744;9.162;2024-03-23T05:01:30;95226.63;;;12.27;nan
11198;BME280;5655;48.744;9.162;2024-03-23T05:03:56;95223.50;;;11.98;nan
11198;BME280;5655;48.744;9.162;2024-03-23T05:06:22;95219.13;;;11.74;nan
11198;BME280;5655;48.744;9.162;2024-03-23T05:08:47;95222.25;;;11.69;nan
11198;BME280;5655;48.744;9.162;2024-03-23T05:11:12;95208.56;;;11.56;nan
11198;BME280;5655;48.744;9.162;2024-03-23T05:13:38;95197.81;;;11.60;nan
11198;BME280;5655;48.744;9.162;2024-03-23T05:16:03;95199.34;;;11.57;nan
11198;BME280;5655;48.744;9.162;2024-03-23T05:18:29;95199.06;;;11.48;nan
11198;BME280;5655;48.744;9.162;2024-03-23T05:20:58;95207.09;;;11.52;nan
11198;BME280;5655;48.744;9.162;2024-03-23T05:23:25;95187.53;;;11.55;nan
11198;BME280;5655;48.744;9.162;2024-03-23T05:25:50;95201.09;;;11.33;nan
11198;BME280;5655;48.744;9.162;2024-03-23T05:28:16;95191.22;;;11.23;nan
11198;BME280;5655;48.744;9.162;2024-03-23T05:30:42;95189.03;;;11.11;nan
11198;BME280;5655;48.744;9.162;2024-03-23T05:33:07;95207.84;;;11.04;nan
11198;BME280;5655;48.744;9.162;2024-03-23T05:35:32;95210.41;;;11.18;nan
11198;BME280;5655;48.744;9.162;2024-03-23T05:37:58;95210.16;;;10.99;nan
11198;BME280;5655;48.744;9.162;2024-03-23T05:40:26;95222.28;;;11.17;nan
11198;BME280;5655;48.744;9.162;2024-03-23T05:42:52;95246.50;;;11.00;nan
11198;BME280;5655;48.744;9.162;2024-03-23T05:45:18;95248.13;;;10.79;nan
11198;BME280;5655;48.744;9.162;2024-03-23T05:47:44;95263.47;;;10.72;nan
11198;BME280;5655;48.744;9.162;2024-03-23T05:50:10;95264.94;;;10.83;nan
11198;BME280;5655;48.744;9.162;2024-03-23T05:52:38;95276.47;;;10.66;nan
11198;BME280;5655;48.744;9.162;2024-03-23T05:55:04;95272.69;;;10.60;nan
11198;BME280;5655;48.744;9.162;2024-03-23T05:57:29;95281.88;;;10.56;nan
11198;BME280;5655;48.744;9.162;2024-03-23T05:59:55;95283.44;;;10.50;nan
11198;BME280;5655;48.744;9.162;2024-03-23T06:02:20;95271.97;;;10.53;nan
11198;BME280;5655;48.744;9.162;2024-03-23T06:04:46;95274.25;;;10.51;nan
11198;BME280;5655;48.744;9.162;2024-03-23T06:07:11;95277.34;;;10.45;nan
11198;BME280;5655;48.744;9.162;2024-03-23T06:09:39;95270.88;;;10.39;nan
11198;BME280;5655;48.744;9.162;2024-03-23T06:12:04;95298.41;;;10.12;nan
11198;BME280;5655;48.744;9.162;2024-03-23T06:14:30;95283.13;;;10.26;nan
11198;BME280;5655;48.744;9.162;2024-03-23T06:16:55;95294.59;;;10.06;nan
11198;BME280;5655;48.744;9.162;2024-03-23T06:19:20;95301.88;;;9.91;nan
11198;BME280;5655;48.744;9.162;2024-03-23T06:21:46;95299.94;;;10.09;nan
11198;BME280;5655;48.744;9.162;2024-03-23T06:24:11;95295.00;;;10.04;nan
11198;BME280;5655;48.744;9.162;2024-03-23T06:26:37;95299.59;;;9.75;nan
11198;BME280;5655;48.744;9.162;2024-03-23T06:29:02;95319.06;;;9.76;nan
11198;BME280;5655;48.744;9.162;2024-03-23T06:31:28;95324.00;;;9.67;nan
11198;BME280;5655;48.744;9.162;2024-03-23T06:33:55;95324.03;;;9.60;nan
11198;BME280;5655;48.744;9.162;2024-03-23T06:36:20;95349.19;;;9.37;nan
11198;BME280;5655;48.744;9.162;2024-03-23T06:38:45;95358.31;;;9.22;nan
11198;BME280;5655;48.744;9.162;2024-03-23T06:41:10;95363.25;;;9.20;nan
11198;BME280;5655;48.744;9.162;2024-03-23T06:43:36;95367.41;;;9.10;nan
11198;BME280;5655;48.744;9.162;2024-03-23T06:46:03;95359.41;;;9.07;nan
11198;BME280;5655;48.744;9.162;2024-03-23T06:48:29;95353.69;;;9.12;nan
11198;BME280;5655;48.744;9.162;2024-03-23T06:50:56;95371.25;;;9.13;nan
11198;BME280;5655;48.744;9.162;2024-03-23T06:53:22;95391.00;;;8.98;nan
11198;BME280;5655;48.744;9.162;2024-03-23T06:55:51;95386.44;;;9.02;nan
11198;BME280;5655;48.744;9.162;2024-03-23T06:58:17;95392.59;;;9.06;nan
11198;BME280;5655;48.744;9.162;2024-03-23T07:00:43;95402.53;;;9.16;nan
11198;BME280;5655;48.744;9.162;2024-03-23T07:03:08;95404.00;;;9.03;nan
11198;BME280;5655;48.744;9.162;2024-03-23T07:05:33;95408.19;;;9.04;nan
11198;BME280;5655;48.744;9.162;2024-03-23T07:07:58;95420.44;;;9.12;nan
11198;BME280;5655;48.744;9.162;2024-03-23T07:10:24;95418.94;;;9.18;nan
11198;BME280;5655;48.744;9.162;2024-03-23T07:12:49;95418.53;;;9.09;nan
11198;BME280;5655;48.744;9.162;2024-03-23T07:15:14;95418.19;;;9.21;nan
11198;BME280;5655;48.744;9.162;2024-03-23T07:17:41;95420.78;;;9.10;nan
11198;BME280;5655;48.744;9.162;2024-03-23T07:20:06;95420.78;;;9.07;nan
11198;BME280;5655;48.744;9.162;2024-03-23T07:22:35;95436.13;;;9.28;nan
11198;BME280;5655;48.744;9.162;2024-03-23T07:25:01;95434.25;;;9.39;nan
11198;BME280;5655;48.744;9.162;2024-03-23T07:27:26;95437.63;;;9.18;nan
11198;BME280;5655;48.744;9.162;2024-03-23T07:29:52;95421.63;;;9.25;nan
11198;BME280;5655;48.744;9.162;2024-03-23T07:32:17;95441.41;;;9.10;nan
11198;BME280;5655;48.744;9.162;2024-03-23T07:34:42;95430.75;;;9.24;nan
11198;BME280;5655;48.744;9.162;2024-03-23T07:37:09;95446.75;;;9.10;nan
11198;BME280;5655;48.744;9.162;2024-03-23T07:39:35;95443.31;;;9.06;nan
11198;BME280;5655;48.744;9.162;2024-03-23T07:42:00;95464.22;;;8.97;nan
11198;BME280;5655;48.744;9.162;2024-03-23T07:44:25;95461.59;;;9.11;nan
11198;BME280;5655;48.744;9.162;2024-03-23T07:46:50;95462.34;;;9.08;nan
11198;BME280;5655;48.744;9.162;2024-03-23T07:49:16;95466.88;;;8.97;nan
11198;BME280;5655;48.744;9.162;2024-03-23T07:51:41;95458.91;;;9.04;nan
11198;BME280;5655;48.744;9.162;2024-03-23T07:54:06;95469.16;;;8.98;nan
11198;BME280;5655;48.744;9.162;2024-03-23T07:56:32;95468.72;;;8.86;nan
11198;BME280;5655;48.744;9.162;2024-03-23T07:58:57;95471.16;;;9.12;nan
11198;BME280;5655;48.744;9.162;2024-03-23T08:01:22;95473.16;;;9.36;nan
11198;BME280;5655;48.744;9.162;2024-03-23T08:03:49;95495.59;;;9.21;nan
11198;BME280;5655;48.744;9.162;2024-03-23T08:06:18;95503.13;;;9.01;nan
11198;BME280;5655;48.744;9.162;2024-03-23T08:08:49;95507.50;;;8.69;nan
11198;BME280;5655;48.744;9.162;2024-03-23T08:11:15;95530.72;;;8.25;nan
11198;BME280;5655;48.744;9.162;2024-03-23T08:13:42;95528.53;;;8.30;nan
11198;BME280;5655;48.744;9.162;2024-03-23T08:16:07;95538.22;;;8.49;nan
11198;BME280;5655;48.744;9.162;2024-03-23T08:18:34;95538.09;;;8.38;nan
11198;BME280;5655;48.744;9.162;2024-03-23T08:21:00;95525.72;;;8.60;nan
11198;BME280;5655;48.744;9.162;2024-03-23T08:23:30;95547.16;;;8.71;nan
11198;BME280;5655;48.744;9.162;2024-03-23T08:26:03;95574.50;;;8.60;nan
11198;BME280;5655;48.744;9.162;2024-03-23T08:28:29;95576.72;;;8.55;nan
11198;BME280;5655;48.744;9.162;2024-03-23T08:30:54;95581.44;;;8.72;nan
11198;BME280;5655;48.744;9.162;2024-03-23T08:33:21;95595.94;;;8.71;nan
11198;BME280;5655;48.744;9.162;2024-03-23T08:35:56;95600.41;;;8.60;nan
11198;BME280;5655;48.744;9.162;2024-03-23T08:38:23;95605.84;;;8.71;nan
11198;BME280;5655;48.744;9.162;2024-03-23T08:40:59;95607.28;;;8.64;nan
11198;BME280;5655;48.744;9.162;2024-03-23T08:43:25;95615.00;;;8.73;nan
11198;BME280;5655;48.744;9.162;2024-03-23T08:45:51;95615.53;;;8.93;nan
11198;BME280;5655;48.744;9.162;2024-03-23T08:48:17;95604.91;;;8.96;nan
11198;BME280;5655;48.744;9.162;2024-03-23T08:50:43;95608.47;;;9.18;nan
11198;BME280;5655;48.744;9.162;2024-03-23T08:53:09;95616.19;;;8.79;nan
11198;BME280;5655;48.744;9.162;2024-03-23T08:55:34;95626.22;;;8.93;nan
11198;BME280;5655;48.744;9.162;2024-03-23T08:58:00;95628.88;;;8.93;nan
11198;BME280;5655;48.744;9.162;2024-03-23T09:00:26;95653.44;;;9.13;nan
11198;BME280;5655;48.744;9.162;2024-03-23T09:02:51;95674.00;;;9.08;nan
11198;BME280;5655;48.744;9.162;2024-03-23T09:05:16;95672.47;;;9.07;nan
11198;BME280;5655;48.744;9.162;2024-03-23T09:07:42;95693.06;;;9.10;nan
11198;BME280;5655;48.744;9.162;2024-03-23T09:10:07;95693.13;;;9.14;nan
11198;BME280;5655;48.744;9.162;2024-03-23T09:12:33;95697.59;;;9.03;nan
11198;BME280;5655;48.744;9.162;2024-03-23T09:14:58;95699.91;;;9.08;nan
11198;BME280;5655;48.744;9.162;2024-03-23T09:17:23;95703.72;;;9.07;nan
11198;BME280;5655;48.744;9.162;2024-03-23T09:19:49;95715.28;;;9.18;nan
11198;BME280;5655;48.744;9.162;2024-03-23T09:22:14;95711.72;;;9.07;nan
11198;BME280;5655;48.744;9.162;2024-03-23T09:24:40;95725.47;;;9.09;nan
11198;BME280;5655;48.744;9.162;2024-03-23T09:27:05;95735.75;;;9.07;nan
11198;BME280;5655;48.744;9.162;2024-03-23T09:29:30;95736.03;;;8.95;nan
11198;BME280;5655;48.744;9.162;2024-03-23T09:31:56;95727.13;;;9.24;nan
11198;BME280;5655;48.744;9.162;2024-03-23T09:34:21;95729.41;;;8.82;nan
11198;BME280;5655;48.744;9.162;2024-03-23T09:36:47;95737.94;;;8.98;nan
11198;BME280;5655;48.744;9.162;2024-03-23T09:39:13;95731.69;;;9.24;nan
11198;BME280;5655;48.744;9.162;2024-03-23T09:41:39;95716.91;;;9.33;nan
11198;BME280;5655;48.744;9.162;2024-03-23T09:44:05;95705.00;;;9.24;nan
11198;BME280;5655;48.744;9.162;2024-03-23T09:46:31;95719.00;;;9.57;nan
11198;BME280;5655;48.744;9.162;2024-03-23T09:48:59;95710.25;;;9.61;nan
11198;BME280;5655;48.744;9.162;2024-03-23T09:51:25;95716.78;;;9.19;nan
11198;BME280;5655;48.744;9.162;2024-03-23T09:53:51;95721.50;;;9.36;nan
11198;BME280;5655;48.744;9.162;2024-03-23T09:56:17;95726.34;;;9.20;nan
11198;BME280;5655;48.744;9.162;2024-03-23T09:58:42;95723.63;;;9.13;nan
11198;BME280;5655;48.744;9.162;2024-03-23T10:01:08;95722.19;;;9.26;nan
11198;BME280;5655;48.744;9.162;2024-03-23T10:03:45;95724.56;;;9.35;nan
11198;BME280;5655;48.744;9.162;2024-03-23T10:06:11;95723.75;;;9.27;nan
11198;BME280;5655;48.744;9.162;2024-03-23T10:08:36;95722.88;;;9.16;nan
11198;BME280;5655;48.744;9.162;2024-03-23T10:11:21;95711.41;;;9.12;nan
11198;BME280;5655;48.744;9.162;2024-03-23T10:13:47;95718.34;;;9.24;nan
11198;BME280;5655;48.744;9.162;2024-03-23T10:16:21;95710.38;;;9.27;nan
11198;BME280;5655;48.744;9.162;2024-03-23T10:18:47;95704.75;;;9.39;nan
11198;BME280;5655;48.744;9.162;2024-03-23T10:21:14;95699.56;;;9.64;nan
11198;BME280;5655;48.744;9.162;2024-03-23T10:23:44;95703.16;;;9.89;nan
11198;BME280;5655;48.744;9.162;2024-03-23T10:26:13;95689.63;;;10.26;nan
11198;BME280;5655;48.744;9.162;2024-03-23T10:28:59;95695.75;;;10.30;nan
11198;BME280;5655;48.744;9.162;2024-03-23T10:31:30;95688.13;;;10.36;nan
11198;BME280;5655;48.744;9.162;2024-03-23T10:33:56;95683.19;;;10.48;nan
11198;BME280;5655;48.744;9.162;2024-03-23T10:36:22;95682.50;;;10.69;nan
11198;BME280;5655;48.744;9.162;2024-03-23T10:38:50;95686.72;;;10.81;nan
11198;BME280;5655;48.744;9.162;2024-03-23T10:41:16;95679.09;;;9.86;nan
11198;BME280;5655;48.744;9.162;2024-03-23T10:43:42;95697.34;;;9.70;nan
11198;BME280;5655;48.744;9.162;2024-03-23T10:46:08;95692.88;;;9.88;nan
11198;BME280;5655;48.744;9.162;2024-03-23T10:48:34;95688.31;;;9.99;nan
11198;BME280;5655;48.744;9.162;2024-03-23T10:51:00;95699.13;;;9.51;nan
11198;BME280;5655;48.744;9.162;2024-03-23T10:53:26;95726.94;;;9.47;nan
11198;BME280;5655;48.744;9.162;2024-03-23T10:55:54;95737.28;;;9.08;nan
11198;BME280;5655;48.744;9.162;2024-03-23T10:58:24;95746.16;;;8.79;nan
11198;BME280;5655;48.744;9.162;2024-03-23T11:00:52;95791.91;;;7.68;nan
11198;BME280;5655;48.744;9.162;2024-03-23T11:03:38;95766.78;;;6.36;nan
11198;BME280;5655;48.744;9.162;2024-03-23T11:06:05;95768.72;;;5.85;nan
11198;BME280;5655;48.744;9.162;2024-03-23T11:08:38;95739.38;;;5.63;nan
11198;BME280;5655;48.744;9.162;2024-03-23T11:11:21;95721.06;;;6.08;nan
11198;BME280;5655;48.744;9.162;2024-03-23T11:13:52;95732.16;;;6.14;nan
11198;BME280;5655;48.744;9.162;2024-03-23T11:16:30;95731.13;;;6.37;nan
11198;BME280;5655;48.744;9.162;2024-03-23T11:19:35;95736.25;;;6.69;nan
11198;BME280;5655;48.744;9.162;2024-03-23T11:22:04;95725.31;;;6.93;nan
11198;BME280;5655;48.744;9.162;2024-03-23T11:24:33;95724.06;;;7.10;nan
11198;BME280;5655;48.744;9.162;2024-03-23T11:26:59;95726.28;;;7.30;nan
11198;BME280;5655;48.744;9.162;2024-03-23T11:29:27;95723.81;;;7.67;nan
11198;BME280;5655;48.744;9.162;2024-03-23T11:31:53;95737.13;;;7.94;nan
11198;BME280;5655;48.744;9.162;2024-03-23T11:34:19;95745.16;;;7.71;nan
11198;BME280;5655;48.744;9.162;2024-03-23T11:36:45;95740.41;;;7.84;nan
11198;BME280;5655;48.744;9.162;2024-03-23T11:39:15;95737.50;;;7.96;nan
11198;BME280;5655;48.744;9.162;2024-03-23T11:41:50;95731.00;;;8.19;nan
11198;BME280;5655;48.744;9.162;2024-03-23T11:46:41;95734.19;;;9.46;nan
11198;BME280;5655;48.744;9.162;2024-03-23T11:49:06;95735.53;;;9.74;nan
11198;BME280;5655;48.744;9.162;2024-03-23T11:51:32;95730.72;;;9.42;nan
11198;BME280;5655;48.744;9.162;2024-03-23T11:54:08;95737.59;;;9.43;nan
11198;BME280;5655;48.744;9.162;2024-03-23T11:56:33;95738.13;;;9.19;nan
11198;BME280;5655;48.744;9.162;2024-03-23T11:58:58;95723.63;;;9.13;nan
11198;BME280;5655;48.744;9.162;2024-03-23T12:01:23;95742.38;;;8.80;nan
11198;BME280;5655;48.744;9.162;2024-03-23T12:03:49;95739.44;;;8.92;nan
11198;BME280;5655;48.744;9.162;2024-03-23T12:06:19;95737.25;;;9.01;nan
11198;BME280;5655;48.744;9.162;2024-03-23T12:08:44;95733.09;;;8.67;nan
11198;BME280;5655;48.744;9.162;2024-03-23T12:11:17;95735.63;;;8.93;nan
11198;BME280;5655;48.744;9.162;2024-03-23T12:13:44;95722.03;;;9.05;nan
11198;BME280;5655;48.744;9.162;2024-03-23T12:16:16;95736.47;;;9.00;nan
11198;BME280;5655;48.744;9.162;2024-03-23T12:18:42;95733.81;;;9.04;nan
11198;BME280;5655;48.744;9.162;2024-03-23T12:21:08;95739.03;;;8.93;nan
11198;BME280;5655;48.744;9.162;2024-03-23T12:23:34;95732.84;;;8.82;nan
11198;BME280;5655;48.744;9.162;2024-03-23T12:26:00;95732.88;;;8.86;nan
11198;BME280;5655;48.744;9.162;2024-03-23T12:28:25;95728.75;;;8.92;nan
11198;BME280;5655;48.744;9.162;2024-03-23T12:30:51;95725.47;;;9.05;nan
11198;BME280;5655;48.744;9.162;2024-03-23T12:33:17;95722.19;;;9.26;nan
11198;BME280;5655;48.744;9.162;2024-03-23T12:35:43;95722.06;;;9.12;nan
11198;BME280;5655;48.744;9.162;2024-03-23T12:38:08;95720.19;;;9.16;nan
11198;BME280;5655;48.744;9.162;2024-03-23T12:40:33;95727.47;;;9.19;nan
11198;BME280;5655;48.744;9.162;2024-03-23T12:42:58;95722.88;;;9.16;nan
11198;BME280;5655;48.744;9.162;2024-03-23T12:45:24;95726.72;;;9.19;nan
11198;BME280;5655;48.744;9.162;2024-03-23T12:47:49;95729.94;;;9.42;nan
11198;BME280;5655;48.744;9.162;2024-03-23T12:50:15;95726.91;;;9.43;nan
11198;BME280;5655;48.744;9.162;2024-03-23T12:52:40;95727.41;;;9.12;nan
11198;BME280;5655;48.744;9.162;2024-03-23T12:55:06;95729.72;;;9.14;nan
11198;BME280;5655;48.744;9.162;2024-03-23T12:57:32;95731.50;;;9.02;nan
11198;BME280;5655;48.744;9.162;2024-03-23T12:59:58;95720.91;;;9.06;nan
11198;BME280;5655;48.744;9.162;2024-03-23T13:02:23;95714.94;;;9.23;nan
11198;BME280;5655;48.744;9.162;2024-03-23T13:04:49;95717.81;;;9.51;nan
11198;BME280;5655;48.744;9.162;2024-03-23T13:07:15;95703.91;;;9.83;nan
11198;BME280;5655;48.744;9.162;2024-03-23T13:09:41;95707.19;;;9.62;nan
11198;BME280;5655;48.744;9.162;2024-03-23T13:12:06;95704.91;;;9.61;nan
11198;BME280;5655;48.744;9.162;2024-03-23T13:14:32;95709.31;;;9.39;nan
11198;BME280;5655;48.744;9.162;2024-03-23T13:16:58;95712.84;;;9.50;nan
11198;BME280;5655;48.744;9.162;2024-03-23T13:19:23;95706.25;;;9.91;nan
11198;BME280;5655;48.744;9.162;2024-03-23T13:21:55;95706.94;;;10.68;nan
11198;BME280;5655;48.744;9.162;2024-03-23T13:24:24;95691.66;;;10.65;nan
11198;BME280;5655;48.744;9.162;2024-03-23T13:26:53;95688.16;;;10.39;nan
11198;BME280;5655;48.744;9.162;2024-03-23T13:29:19;95683.84;;;10.17;nan
11198;BME280;5655;48.744;9.162;2024-03-23T13:31:46;95677.00;;;10.23;nan
11198;BME280;5655;48.744;9.162;2024-03-23T13:34:12;95671.63;;;10.16;nan
11198;BME280;5655;48.744;9.162;2024-03-23T13:36:39;95672.34;;;10.13;nan
11198;BME280;5655;48.744;9.162;2024-03-23T13:39:05;95663.97;;;10.18;nan
11198;BME280;5655;48.744;9.162;2024-03-23T13:41:31;95664.13;;;10.68;nan
11198;BME280;5655;48.744;9.162;2024-03-23T13:43:57;95651.16;;;10.80;nan
11198;BME280;5655;48.744;9.162;2024-03-23T13:46:22;95656.50;;;10.84;nan
11198;BME280;5655;48.744;9.162;2024-03-23T13:48:47;95653.44;;;11.10;nan
11198;BME280;5655;48.744;9.162;2024-03-23T13:51:12;95664.91;;;10.93;nan
11198;BME280;5655;48.744;9.162;2024-03-23T13:53:38;95656.91;;;10.86;nan
11198;BME280;5655;48.744;9.162;2024-03-23T13:56:03;95659.97;;;11.02;nan
11198;BME280;5655;48.744;9.162;2024-03-23T13:58:29;95662.63;;;11.30;nan
11198;BME280;5655;48.744;9.162;2024-03-23T14:00:56;95654.97;;;10.97;nan
11198;BME280;5655;48.744;9.162;2024-03-23T14:03:23;95674.06;;;10.57;nan
11198;BME280;5655;48.744;9.162;2024-03-23T14:05:48;95655.28;;;10.39;nan
11198;BME280;5655;48.744;9.162;2024-03-23T14:08:13;95674.66;;;10.18;nan
11198;BME280;5655;48.744;9.162;2024-03-23T14:10:42;95669.72;;;10.20;nan
11198;BME280;5655;48.744;9.162;2024-03-23T14:13:08;95675.22;;;9.80;nan
11198;BME280;5655;48.744;9.162;2024-03-23T14:15:33;95707.72;;;9.27;nan
11198;BME280;5655;48.744;9.162;2024-03-23T14:17:59;95704.97;;;8.39;nan
11198;BME280;5655;48.744;9.162;2024-03-23T14:20:25;95709.09;;;7.77;nan
11198;BME280;5655;48.744;9.162;2024-03-23T14:22:51;95690.91;;;7.83;nan
11198;BME280;5655;48.744;9.162;2024-03-23T14:25:17;95691.66;;;8.13;nan
11198;BME280;5655;48.744;9.162;2024-03-23T14:27:45;95697.69;;;8.36;nan
11198;BME280;5655;48.744;9.162;2024-03-23T14:30:12;95684.47;;;8.17;nan
11198;BME280;5655;48.744;9.162;2024-03-23T14:32:38;95678.78;;;8.48;nan